Time;durP1;ratioP1;P1;durP2;ratioP2;P2;SDS_P1;SDS_P2;PMS_P1;PMS_P2;Temp;Humidity;BMP_temperature;BMP_pressure;BME280_temperature;BME280_humidity;BME280_pressure;Samples;Min_cycle;Max_cycle;Signal;HPM_P1;HPM_P2
2023/09/26 00:02:05;;;;;;;;;11.00;9.00;;;;;;;;5080290;27;45290;-50
2023/09/26 00:04:31;;;;;;;;;8.33;7.00;;;;;;;;5073705;27;45458;-52
2023/09/26 00:06:59;;;;;;;;;7.67;7.67;;;;;;;;5071473;27;45330;-48
2023/09/26 00:09:26;;;;;;;;;9.33;8.00;;;;;;;;5077373;27;47116;-49
2023/09/26 00:11:51;;;;;;;;;8.00;8.00;;;;;;;;5076401;27;45362;-52
2023/09/26 00:14:16;;;;;;;;;11.33;9.67;;;;;;;;5078366;28;45309;-52
2023/09/26 00:16:41;;;;;;;;;7.00;7.00;;;;;;;;5077184;27;45381;-52
2023/09/26 00:19:07;;;;;;;;;10.33;8.33;;;;;;;;5072729;28;46515;-50
2023/09/26 00:21:32;;;;;;;;;8.00;7.33;;;;;;;;5071759;27;45291;-52
2023/09/26 00:23:57;;;;;;;;;11.67;8.33;;;;;;;;5074620;27;45337;-52
2023/09/26 00:26:23;;;;;;;;;8.00;8.00;;;;;;;;5071729;27;45432;-49
2023/09/26 00:28:48;;;;;;;;;7.67;7.67;;;;;;;;5073656;27;45433;-48
2023/09/26 00:31:13;;;;;;;;;8.67;8.33;;;;;;;;5069539;27;45462;-51
2023/09/26 00:33:38;;;;;;;;;8.33;8.33;;;;;;;;5076911;27;45536;-49
2023/09/26 00:36:07;;;;;;;;;8.00;8.00;;;;;;;;5072034;28;45280;-49
2023/09/26 00:38:33;;;;;;;;;7.00;7.00;;;;;;;;5076988;28;46141;-48
2023/09/26 00:40:58;;;;;;;;;11.00;8.00;;;;;;;;5078379;28;45392;-50
2023/09/26 00:43:23;;;;;;;;;8.33;7.67;;;;;;;;5072361;28;45567;-48
2023/09/26 00:45:51;;;;;;;;;8.00;8.00;;;;;;;;5073271;27;45219;-51
2023/09/26 00:48:16;;;;;;;;;10.67;9.67;;;;;;;;5074303;28;46391;-50
2023/09/26 00:50:41;;;;;;;;;7.33;7.33;;;;;;;;5067417;28;45333;-50
2023/09/26 00:53:06;;;;;;;;;6.00;4.00;;;;;;;;5081703;28;45232;-50
2023/09/26 00:55:32;;;;;;;;;8.00;5.67;;;;;;;;5081304;27;45730;-49
2023/09/26 00:57:57;;;;;;;;;9.33;9.33;;;;;;;;5081741;28;46281;-52
2023/09/26 01:00:23;;;;;;;;;9.33;9.00;;;;;;;;5081273;27;45488;-51
2023/09/26 01:02:49;;;;;;;;;7.67;7.67;;;;;;;;5075657;28;45276;-49
2023/09/26 01:05:14;;;;;;;;;8.67;7.00;;;;;;;;5074284;27;45385;-52
2023/09/26 01:07:39;;;;;;;;;9.33;9.33;;;;;;;;5082917;27;45455;-49
2023/09/26 01:10:07;;;;;;;;;10.00;8.00;;;;;;;;5081338;28;45408;-50
2023/09/26 01:12:33;;;;;;;;;5.67;3.67;;;;;;;;5082393;27;45428;-51
2023/09/26 01:14:58;;;;;;;;;8.00;7.00;;;;;;;;5084142;27;45228;-49
2023/09/26 01:17:23;;;;;;;;;11.67;9.00;;;;;;;;5081718;27;45277;-52
2023/09/26 01:19:49;;;;;;;;;5.33;5.33;;;;;;;;5082084;27;45496;-51
2023/09/26 01:22:16;;;;;;;;;9.00;8.00;;;;;;;;5080829;28;45377;-52
2023/09/26 01:24:41;;;;;;;;;7.67;7.67;;;;;;;;5081986;27;45520;-53
2023/09/26 01:27:06;;;;;;;;;6.00;5.33;;;;;;;;5081256;27;45437;-50
2023/09/26 01:29:31;;;;;;;;;6.00;6.00;;;;;;;;5083648;27;45572;-51
2023/09/26 01:31:57;;;;;;;;;7.00;7.00;;;;;;;;5080071;28;45867;-48
2023/09/26 01:34:22;;;;;;;;;7.00;6.33;;;;;;;;5081290;27;45379;-53
2023/09/26 01:36:47;;;;;;;;;6.00;6.00;;;;;;;;5079017;27;46272;-50
2023/09/26 01:39:12;;;;;;;;;8.33;6.33;;;;;;;;5078200;27;45666;-53
2023/09/26 01:41:38;;;;;;;;;10.33;9.00;;;;;;;;5080719;27;45489;-53
2023/09/26 01:44:03;;;;;;;;;6.00;6.00;;;;;;;;5079652;27;45988;-50
2023/09/26 01:46:28;;;;;;;;;7.67;7.33;;;;;;;;5080235;27;45730;-51
2023/09/26 01:48:54;;;;;;;;;10.00;7.00;;;;;;;;5084035;27;45411;-58
2023/09/26 01:51:20;;;;;;;;;11.00;6.00;;;;;;;;5081888;27;45256;-46
2023/09/26 01:53:45;;;;;;;;;7.67;7.67;;;;;;;;5081220;27;45480;-48
2023/09/26 01:56:10;;;;;;;;;7.00;7.00;;;;;;;;5080425;27;46133;-47
2023/09/26 01:58:35;;;;;;;;;9.00;7.00;;;;;;;;5081027;27;45450;-48
2023/09/26 02:01:00;;;;;;;;;7.00;6.67;;;;;;;;5080808;27;46657;-50
2023/09/26 02:03:26;;;;;;;;;10.00;6.00;;;;;;;;5081400;27;45212;-48
2023/09/26 02:05:55;;;;;;;;;9.00;5.00;;;;;;;;5076577;27;45380;-47
2023/09/26 02:08:20;;;;;;;;;7.00;7.00;;;;;;;;5075819;27;45239;-51
2023/09/26 02:10:45;;;;;;;;;7.00;7.00;;;;;;;;5081243;27;45571;-50
2023/09/26 02:13:10;;;;;;;;;9.67;7.00;;;;;;;;5082228;27;45321;-47
2023/09/26 02:15:36;;;;;;;;;7.00;7.00;;;;;;;;5076399;27;45463;-51
2023/09/26 02:18:02;;;;;;;;;5.00;5.00;;;;;;;;5080834;27;45378;-48
2023/09/26 02:20:27;;;;;;;;;8.33;7.00;;;;;;;;5070027;27;45455;-48
2023/09/26 02:22:52;;;;;;;;;9.00;9.00;;;;;;;;5082778;27;45471;-50
2023/09/26 02:25:23;;;;;;;;;5.67;5.67;;;;;;;;5081017;27;45360;-49
2023/09/26 02:27:48;;;;;;;;;5.67;5.33;;;;;;;;5083964;27;45310;-51
2023/09/26 02:30:14;;;;;;;;;5.00;5.00;;;;;;;;5081411;27;45302;-47
2023/09/26 02:32:40;;;;;;;;;8.33;7.00;;;;;;;;5081099;27;46258;-51
2023/09/26 02:35:09;;;;;;;;;8.00;8.00;;;;;;;;5080375;27;47192;-48
2023/09/26 02:37:35;;;;;;;;;8.00;7.00;;;;;;;;5081824;27;45394;-48
2023/09/26 02:40:04;;;;;;;;;8.67;6.67;;;;;;;;5080520;27;45981;-51
2023/09/26 02:42:29;;;;;;;;;7.00;5.00;;;;;;;;5080514;27;45260;-48
2023/09/26 02:44:55;;;;;;;;;10.33;9.33;;;;;;;;5079116;27;47139;-50
2023/09/26 02:47:20;;;;;;;;;7.33;7.33;;;;;;;;5077557;27;45220;-51
2023/09/26 02:49:45;;;;;;;;;8.67;6.00;;;;;;;;5080763;27;45371;-50
2023/09/26 02:52:10;;;;;;;;;8.67;7.00;;;;;;;;5081025;28;45488;-49
2023/09/26 02:54:35;;;;;;;;;8.00;6.33;;;;;;;;5079417;27;45379;-51
2023/09/26 02:57:00;;;;;;;;;9.00;7.33;;;;;;;;5081627;27;45365;-49
2023/09/26 02:59:26;;;;;;;;;7.00;7.00;;;;;;;;5079532;27;45427;-50
2023/09/26 03:01:52;;;;;;;;;7.67;7.33;;;;;;;;5081112;27;45399;-52
2023/09/26 03:04:17;;;;;;;;;6.00;6.00;;;;;;;;5071859;27;46337;-49
2023/09/26 03:06:42;;;;;;;;;7.33;6.33;;;;;;;;5077618;27;45424;-49
2023/09/26 03:09:08;;;;;;;;;3.00;2.67;;;;;;;;5080940;27;45513;-51
2023/09/26 03:11:33;;;;;;;;;9.67;6.33;;;;;;;;5080804;27;45349;-50
2023/09/26 03:13:58;;;;;;;;;7.00;6.00;;;;;;;;5077915;27;46198;-49
2023/09/26 03:16:24;;;;;;;;;8.33;7.00;;;;;;;;5078944;27;45691;-52
2023/09/26 03:18:54;;;;;;;;;7.33;5.67;;;;;;;;5075040;27;45666;-53
2023/09/26 03:21:19;;;;;;;;;6.00;5.67;;;;;;;;5082491;27;46100;-49
2023/09/26 03:23:44;;;;;;;;;8.67;7.00;;;;;;;;5077699;28;45634;-50
2023/09/26 03:26:10;;;;;;;;;7.00;7.00;;;;;;;;5077229;27;45263;-48
2023/09/26 03:28:36;;;;;;;;;7.00;7.00;;;;;;;;5080522;27;45739;-50
2023/09/26 03:31:04;;;;;;;;;6.67;5.00;;;;;;;;5079013;27;45255;-50
2023/09/26 03:33:32;;;;;;;;;7.00;7.00;;;;;;;;5078560;27;45350;-49
2023/09/26 03:35:57;;;;;;;;;6.67;6.67;;;;;;;;5078497;27;45281;-50
2023/09/26 03:38:23;;;;;;;;;7.33;6.67;;;;;;;;5080085;27;45360;-49
2023/09/26 03:40:48;;;;;;;;;6.00;6.00;;;;;;;;5088571;27;46351;-48
2023/09/26 03:43:13;;;;;;;;;8.33;6.00;;;;;;;;5076677;27;45658;-49
2023/09/26 03:45:38;;;;;;;;;8.00;6.00;;;;;;;;5077045;27;45396;-47
2023/09/26 03:48:04;;;;;;;;;7.67;7.67;;;;;;;;5078263;27;45224;-50
2023/09/26 03:50:29;;;;;;;;;6.00;6.00;;;;;;;;5078883;27;45733;-50
2023/09/26 03:52:54;;;;;;;;;8.67;7.00;;;;;;;;5080335;27;46110;-49
2023/09/26 03:55:19;;;;;;;;;5.00;5.00;;;;;;;;5077392;27;45344;-51
2023/09/26 03:57:45;;;;;;;;;5.33;5.33;;;;;;;;5076765;27;45225;-47
2023/09/26 04:00:15;;;;;;;;;6.67;6.67;;;;;;;;5075990;27;45546;-50
2023/09/26 04:02:41;;;;;;;;;6.67;5.67;;;;;;;;5076832;27;46137;-50
2023/09/26 04:05:06;;;;;;;;;5.00;5.00;;;;;;;;5069403;27;45456;-49
2023/09/26 04:07:31;;;;;;;;;8.33;6.33;;;;;;;;5069243;27;45346;-50
2023/09/26 04:09:57;;;;;;;;;6.33;6.33;;;;;;;;5072380;27;45346;-50
2023/09/26 04:12:22;;;;;;;;;7.00;7.00;;;;;;;;5078706;27;46398;-52
2023/09/26 04:14:47;;;;;;;;;8.00;6.67;;;;;;;;5080709;27;45526;-51
2023/09/26 04:17:13;;;;;;;;;6.67;6.67;;;;;;;;5079869;27;45691;-49
2023/09/26 04:19:38;;;;;;;;;8.33;8.33;;;;;;;;5079725;27;45491;-50
2023/09/26 04:22:03;;;;;;;;;6.00;6.00;;;;;;;;5081885;27;45296;-52
2023/09/26 04:24:29;;;;;;;;;9.00;7.67;;;;;;;;5079809;27;45243;-50
2023/09/26 04:26:54;;;;;;;;;6.33;6.33;;;;;;;;5082242;27;45479;-49
2023/09/26 04:29:20;;;;;;;;;8.00;8.00;;;;;;;;5081820;27;45445;-50
2023/09/26 04:31:45;;;;;;;;;7.00;7.00;;;;;;;;5081243;27;46508;-52
2023/09/26 04:34:10;;;;;;;;;7.00;7.00;;;;;;;;5081256;27;45640;-50
2023/09/26 04:36:36;;;;;;;;;6.67;6.67;;;;;;;;5080483;27;45144;-50
2023/09/26 04:39:01;;;;;;;;;8.00;6.00;;;;;;;;5081963;27;45587;-49
2023/09/26 04:41:26;;;;;;;;;11.00;7.33;;;;;;;;5080360;27;45438;-52
2023/09/26 04:43:51;;;;;;;;;9.33;8.33;;;;;;;;5081622;28;45459;-50
2023/09/26 04:46:17;;;;;;;;;6.00;6.00;;;;;;;;5074855;28;45337;-52
2023/09/26 04:48:42;;;;;;;;;7.33;7.33;;;;;;;;5075953;28;45346;-50
2023/09/26 04:51:08;;;;;;;;;7.00;7.00;;;;;;;;5081058;28;46326;-49
2023/09/26 04:53:33;;;;;;;;;6.00;5.33;;;;;;;;5081794;27;45470;-49
2023/09/26 04:56:00;;;;;;;;;7.00;7.00;;;;;;;;5079605;28;45504;-51
2023/09/26 04:58:25;;;;;;;;;7.33;7.33;;;;;;;;5081094;28;45332;-47
2023/09/26 05:00:51;;;;;;;;;7.67;7.67;;;;;;;;5080826;28;47046;-50
2023/09/26 05:03:16;;;;;;;;;7.00;6.00;;;;;;;;5080741;28;45816;-48
2023/09/26 05:05:42;;;;;;;;;8.00;5.33;;;;;;;;5080420;28;45573;-54
2023/09/26 05:08:07;;;;;;;;;7.00;7.00;;;;;;;;5080093;27;45516;-50
2023/09/26 05:10:35;;;;;;;;;10.67;8.33;;;;;;;;5073521;27;45876;-49
2023/09/26 05:13:01;;;;;;;;;6.00;6.00;;;;;;;;5078720;27;45664;-49
2023/09/26 05:15:26;;;;;;;;;7.33;6.00;;;;;;;;5078867;27;45533;-53
2023/09/26 05:17:52;;;;;;;;;6.00;6.00;;;;;;;;5075499;27;45399;-51
2023/09/26 05:20:17;;;;;;;;;7.00;7.00;;;;;;;;5079559;27;46242;-51
2023/09/26 05:22:43;;;;;;;;;8.33;6.00;;;;;;;;5078915;27;45598;-47
2023/09/26 05:25:09;;;;;;;;;7.67;7.00;;;;;;;;5079252;27;45378;-48
2023/09/26 05:27:36;;;;;;;;;10.00;6.00;;;;;;;;5079709;27;45474;-52
2023/09/26 05:30:01;;;;;;;;;8.00;7.00;;;;;;;;5079359;28;46278;-52
2023/09/26 05:32:26;;;;;;;;;7.67;6.33;;;;;;;;5076893;28;45380;-51
2023/09/26 05:34:51;;;;;;;;;5.33;5.33;;;;;;;;5077339;27;45442;-50
2023/09/26 05:37:16;;;;;;;;;7.00;6.00;;;;;;;;5074424;28;45637;-50
2023/09/26 05:39:42;;;;;;;;;7.33;5.33;;;;;;;;5076710;27;46587;-49
2023/09/26 05:42:10;;;;;;;;;10.00;6.00;;;;;;;;5078888;27;45819;-51
2023/09/26 05:44:35;;;;;;;;;8.00;6.33;;;;;;;;5079472;27;45409;-49
2023/09/26 05:47:00;;;;;;;;;6.33;6.33;;;;;;;;5075891;27;45467;-53
2023/09/26 05:49:26;;;;;;;;;10.33;7.33;;;;;;;;5067199;28;46045;-51
2023/09/26 05:51:51;;;;;;;;;7.67;7.67;;;;;;;;5079414;27;45336;-51
2023/09/26 05:54:16;;;;;;;;;10.00;7.67;;;;;;;;5080315;28;45405;-50
2023/09/26 05:56:41;;;;;;;;;7.67;6.00;;;;;;;;5081273;28;45349;-51
2023/09/26 05:59:06;;;;;;;;;8.67;7.00;;;;;;;;5079713;27;46126;-50
2023/09/26 06:01:32;;;;;;;;;8.67;7.33;;;;;;;;5073010;27;47292;-51
2023/09/26 06:03:57;;;;;;;;;9.67;7.67;;;;;;;;5069344;27;45927;-52
2023/09/26 06:06:22;;;;;;;;;6.00;6.00;;;;;;;;5078457;27;45494;-50
2023/09/26 06:08:48;;;;;;;;;7.00;6.33;;;;;;;;5079647;27;45317;-50
2023/09/26 06:11:14;;;;;;;;;7.00;7.00;;;;;;;;5076591;28;45545;-50
2023/09/26 06:13:39;;;;;;;;;7.67;7.67;;;;;;;;5079835;27;45322;-52
2023/09/26 06:16:05;;;;;;;;;7.00;7.00;;;;;;;;5074824;27;45740;-48
2023/09/26 06:18:30;;;;;;;;;7.00;7.00;;;;;;;;5072839;27;47002;-50
2023/09/26 06:20:55;;;;;;;;;8.00;6.00;;;;;;;;5070662;27;45349;-49
2023/09/26 06:23:21;;;;;;;;;9.33;7.33;;;;;;;;5070829;27;45495;-48
2023/09/26 06:25:55;;;;;;;;;10.00;6.33;;;;;;;;5073708;28;45318;-49
2023/09/26 06:28:20;;;;;;;;;7.00;7.00;;;;;;;;5075011;27;45592;-52
2023/09/26 06:30:45;;;;;;;;;7.00;7.00;;;;;;;;5071851;28;46583;-50
2023/09/26 06:33:11;;;;;;;;;8.00;7.00;;;;;;;;5073709;27;45716;-48
2023/09/26 06:35:36;;;;;;;;;8.00;8.00;;;;;;;;5067047;28;45417;-49
2023/09/26 06:38:02;;;;;;;;;8.33;7.33;;;;;;;;5078816;27;46051;-51
2023/09/26 06:40:27;;;;;;;;;7.00;5.67;;;;;;;;5073078;27;45562;-52
2023/09/26 06:42:52;;;;;;;;;8.00;7.00;;;;;;;;5068390;28;45276;-48
2023/09/26 06:45:18;;;;;;;;;9.33;8.33;;;;;;;;5077602;27;45540;-48
2023/09/26 06:47:43;;;;;;;;;8.00;8.00;;;;;;;;5079876;27;46349;-52
2023/09/26 06:50:10;;;;;;;;;6.67;6.00;;;;;;;;5066889;27;45337;-48
2023/09/26 06:52:35;;;;;;;;;7.00;7.00;;;;;;;;5079308;27;45348;-52
2023/09/26 06:55:02;;;;;;;;;8.67;8.67;;;;;;;;5078206;27;45446;-49
2023/09/26 06:57:28;;;;;;;;;10.33;7.33;;;;;;;;5076258;27;46233;-50
2023/09/26 06:59:53;;;;;;;;;10.67;8.67;;;;;;;;5071176;27;45492;-49
2023/09/26 07:02:21;;;;;;;;;11.33;9.00;;;;;;;;5077034;27;45578;-51
2023/09/26 07:04:52;;;;;;;;;11.00;9.67;;;;;;;;5074052;27;45473;-49
2023/09/26 07:07:17;;;;;;;;;10.00;10.00;;;;;;;;5073811;27;46968;-51
2023/09/26 07:09:42;;;;;;;;;9.00;7.00;;;;;;;;5075460;27;45399;-50
2023/09/26 07:12:08;;;;;;;;;7.67;7.67;;;;;;;;5074252;27;45442;-50
2023/09/26 07:14:35;;;;;;;;;11.33;11.33;;;;;;;;5077344;27;45503;-49
2023/09/26 07:17:00;;;;;;;;;11.33;10.33;;;;;;;;5074261;27;46965;-49
2023/09/26 07:19:32;;;;;;;;;5.33;5.33;;;;;;;;5072232;28;45362;-52
2023/09/26 07:21:57;;;;;;;;;11.33;10.00;;;;;;;;5073725;28;45481;-50
2023/09/26 07:24:22;;;;;;;;;12.00;11.00;;;;;;;;5073626;27;45333;-52
2023/09/26 07:26:47;;;;;;;;;9.33;8.67;;;;;;;;5074433;27;45476;-51
2023/09/26 07:29:13;;;;;;;;;13.00;11.00;;;;;;;;5074923;27;45714;-49
2023/09/26 07:31:39;;;;;;;;;9.67;9.67;;;;;;;;5075062;27;45397;-48
2023/09/26 07:34:04;;;;;;;;;9.00;8.00;;;;;;;;5076551;27;45646;-50
2023/09/26 07:36:30;;;;;;;;;9.00;9.00;;;;;;;;5071112;27;46032;-51
2023/09/26 07:38:55;;;;;;;;;8.00;8.00;;;;;;;;5075333;27;45476;-50
2023/09/26 07:41:20;;;;;;;;;11.00;11.00;;;;;;;;5072177;27;45606;-52
2023/09/26 07:43:45;;;;;;;;;8.67;8.67;;;;;;;;5075721;27;45579;-50
2023/09/26 07:46:12;;;;;;;;;7.00;6.67;;;;;;;;5076265;27;45334;-48
2023/09/26 07:48:38;;;;;;;;;9.33;8.00;;;;;;;;5078184;28;45353;-51
2023/09/26 07:51:04;;;;;;;;;6.67;6.00;;;;;;;;5077663;28;45157;-51
2023/09/26 07:53:29;;;;;;;;;8.00;6.67;;;;;;;;5074913;27;45588;-48
2023/09/26 07:55:56;;;;;;;;;8.00;7.00;;;;;;;;5077189;27;45417;-52
2023/09/26 07:58:21;;;;;;;;;9.67;9.33;;;;;;;;5077439;27;45444;-51
2023/09/26 08:00:46;;;;;;;;;9.00;8.00;;;;;;;;5077074;27;45386;-51
2023/09/26 08:03:12;;;;;;;;;11.00;8.00;;;;;;;;5080057;27;45479;-53
2023/09/26 08:05:37;;;;;;;;;6.33;5.00;;;;;;;;5076613;27;46361;-50
2023/09/26 08:08:04;;;;;;;;;6.00;6.00;;;;;;;;5078678;27;45738;-49
2023/09/26 08:10:30;;;;;;;;;5.00;5.00;;;;;;;;5077493;27;46915;-50
2023/09/26 08:12:55;;;;;;;;;5.67;5.00;;;;;;;;5079225;27;46008;-49
2023/09/26 08:15:20;;;;;;;;;8.67;7.33;;;;;;;;5074864;27;45703;-49
2023/09/26 08:17:45;;;;;;;;;6.67;6.67;;;;;;;;5080145;27;45556;-51
2023/09/26 08:20:11;;;;;;;;;7.00;7.00;;;;;;;;5077822;27;45620;-52
2023/09/26 08:22:36;;;;;;;;;8.00;6.33;;;;;;;;5069859;27;45452;-50
2023/09/26 08:25:01;;;;;;;;;7.00;7.00;;;;;;;;5077079;27;45394;-49
2023/09/26 08:27:26;;;;;;;;;10.00;5.00;;;;;;;;5080029;27;45648;-51
2023/09/26 08:29:51;;;;;;;;;6.00;6.00;;;;;;;;5081784;27;46368;-52
2023/09/26 08:32:16;;;;;;;;;5.00;5.00;;;;;;;;5079516;27;45463;-47
2023/09/26 08:34:42;;;;;;;;;5.67;5.00;;;;;;;;5079439;27;46196;-49
2023/09/26 08:37:07;;;;;;;;;7.00;7.00;;;;;;;;5078255;27;45676;-49
2023/09/26 08:39:32;;;;;;;;;7.33;5.33;;;;;;;;5071238;27;45809;-51
2023/09/26 08:41:58;;;;;;;;;6.00;6.00;;;;;;;;5073777;27;46717;-50
2023/09/26 08:44:24;;;;;;;;;5.33;5.00;;;;;;;;5087436;27;45338;-50
2023/09/26 08:46:50;;;;;;;;;6.00;6.00;;;;;;;;5085872;27;45414;-51
2023/09/26 08:49:15;;;;;;;;;6.00;5.67;;;;;;;;5078368;27;45649;-51
2023/09/26 08:51:41;;;;;;;;;8.67;5.67;;;;;;;;5064594;27;45263;-52
2023/09/26 08:54:06;;;;;;;;;8.33;7.00;;;;;;;;5072390;27;45908;-52
2023/09/26 08:56:32;;;;;;;;;9.33;7.00;;;;;;;;5077531;27;45274;-52
2023/09/26 08:58:58;;;;;;;;;5.33;4.67;;;;;;;;5072709;27;45593;-49
2023/09/26 09:01:24;;;;;;;;;6.33;6.33;;;;;;;;5067138;27;45335;-51
2023/09/26 09:03:49;;;;;;;;;7.00;5.00;;;;;;;;5079333;27;47160;-49
2023/09/26 09:06:14;;;;;;;;;6.00;6.00;;;;;;;;5080232;27;45531;-52
2023/09/26 09:08:39;;;;;;;;;7.33;6.33;;;;;;;;5080272;27;45587;-51
2023/09/26 09:11:05;;;;;;;;;10.33;8.33;;;;;;;;5079331;27;45435;-51
2023/09/26 09:13:31;;;;;;;;;7.00;6.00;;;;;;;;5079157;27;46757;-48
2023/09/26 09:16:09;;;;;;;;;9.00;7.67;;;;;;;;5081246;27;45629;-50
2023/09/26 09:18:34;;;;;;;;;6.00;6.00;;;;;;;;5080450;27;45414;-52
2023/09/26 09:20:59;;;;;;;;;7.33;5.67;;;;;;;;5079952;27;45322;-49
2023/09/26 09:23:25;;;;;;;;;5.00;5.00;;;;;;;;5078778;28;46315;-51
2023/09/26 09:25:51;;;;;;;;;8.67;6.00;;;;;;;;5081148;27;45643;-49
2023/09/26 09:28:22;;;;;;;;;7.67;5.33;;;;;;;;5079245;27;45296;-48
2023/09/26 09:30:48;;;;;;;;;8.00;7.00;;;;;;;;5079490;27;45295;-51
2023/09/26 09:33:14;;;;;;;;;7.00;7.00;;;;;;;;5082562;27;45524;-51
2023/09/26 09:35:39;;;;;;;;;6.75;6.75;;;;;;;;5083332;27;45689;-51
2023/09/26 09:38:08;;;;;;;;;7.00;7.00;;;;;;;;5089044;27;45643;-51
2023/09/26 09:40:33;;;;;;;;;9.00;7.67;;;;;;;;5093975;27;45508;-52
2023/09/26 09:42:58;;;;;;;;;8.00;6.50;;;;;;;;5083548;27;45255;-50
2023/09/26 09:45:27;;;;;;;;;7.00;7.00;;;;;;;;5088827;27;45648;-52
2023/09/26 09:47:55;;;;;;;;;7.00;7.00;;;;;;;;5077440;27;45185;-50
2023/09/26 09:50:21;;;;;;;;;7.50;6.50;;;;;;;;5092714;27;45361;-51
2023/09/26 09:52:49;;;;;;;;;10.00;7.00;;;;;;;;5087790;27;46304;-48
2023/09/26 09:55:23;;;;;;;;;8.00;6.75;;;;;;;;5092133;27;45551;-52
2023/09/26 09:57:51;;;;;;;;;7.00;5.25;;;;;;;;5089216;27;46021;-49
2023/09/26 10:00:19;;;;;;;;;6.00;6.00;;;;;;;;5087464;27;45482;-51
2023/09/26 10:02:45;;;;;;;;;7.25;6.25;;;;;;;;5086331;27;46168;-50
2023/09/26 10:05:12;;;;;;;;;6.50;6.00;;;;;;;;5084144;27;45300;-52
2023/09/26 10:07:39;;;;;;;;;7.50;7.50;;;;;;;;5088245;27;45386;-51
2023/09/26 10:10:09;;;;;;;;;6.25;6.25;;;;;;;;5086426;27;45556;-50
2023/09/26 10:12:35;;;;;;;;;7.00;7.00;;;;;;;;5087024;27;47446;-52
2023/09/26 10:15:00;;;;;;;;;6.25;6.00;;;;;;;;5087042;27;45371;-49
2023/09/26 10:17:25;;;;;;;;;4.25;4.25;;;;;;;;5087329;27;45349;-52
2023/09/26 10:19:50;;;;;;;;;5.00;5.00;;;;;;;;5083265;27;45580;-52
2023/09/26 10:22:17;;;;;;;;;5.25;5.00;;;;;;;;5087966;27;45418;-51
2023/09/26 10:24:46;;;;;;;;;5.50;3.25;;;;;;;;5086690;27;45496;-51
2023/09/26 10:27:12;;;;;;;;;4.75;4.75;;;;;;;;5091203;27;45468;-51
2023/09/26 10:29:38;;;;;;;;;4.00;4.00;;;;;;;;5087097;27;45416;-54
2023/09/26 10:32:04;;;;;;;;;5.50;5.00;;;;;;;;5084704;27;47167;-51
2023/09/26 10:34:33;;;;;;;;;4.75;4.75;;;;;;;;5091458;27;45179;-50
2023/09/26 10:36:59;;;;;;;;;3.75;3.75;;;;;;;;5094753;27;45450;-53
2023/09/26 10:39:40;;;;;;;;;4.00;4.00;;;;;;;;5090467;27;45381;-49
2023/09/26 10:42:16;;;;;;;;;7.00;7.00;;;;;;;;5081290;27;45386;-52
2023/09/26 10:44:45;;;;;;;;;8.00;4.00;;;;;;;;5087815;27;45311;-53
2023/09/26 10:47:13;;;;;;;;;7.00;5.50;;;;;;;;5087052;27;45532;-54
2023/09/26 10:49:38;;;;;;;;;4.75;3.25;;;;;;;;5086388;27;45281;-51
2023/09/26 10:52:07;;;;;;;;;4.75;4.75;;;;;;;;5090572;27;45321;-51
2023/09/26 10:54:34;;;;;;;;;4.75;4.75;;;;;;;;5087645;27;45575;-51
2023/09/26 10:57:00;;;;;;;;;7.75;5.00;;;;;;;;5089727;27;45310;-49
2023/09/26 10:59:28;;;;;;;;;6.25;6.25;;;;;;;;5087196;27;45290;-51
2023/09/26 11:01:54;;;;;;;;;5.00;3.50;;;;;;;;5087840;27;46298;-53
2023/09/26 11:04:19;;;;;;;;;4.50;4.50;;;;;;;;5086814;27;45771;-52
2023/09/26 11:06:44;;;;;;;;;6.25;4.50;;;;;;;;5088408;27;45320;-50
2023/09/26 11:09:11;;;;;;;;;7.50;7.00;;;;;;;;5087029;27;45398;-53
2023/09/26 11:11:37;;;;;;;;;5.75;3.50;;;;;;;;5087145;27;46973;-51
2023/09/26 11:14:02;;;;;;;;;6.00;6.00;;;;;;;;5088392;27;45365;-52
2023/09/26 11:16:27;;;;;;;;;5.25;3.75;;;;;;;;5088113;27;45543;-53
2023/09/26 11:18:53;;;;;;;;;6.50;5.25;;;;;;;;5082214;27;45731;-52
2023/09/26 11:21:18;;;;;;;;;5.00;5.00;;;;;;;;5079310;27;46259;-51
2023/09/26 11:23:45;;;;;;;;;4.75;3.50;;;;;;;;5082709;27;45725;-53
2023/09/26 11:26:11;;;;;;;;;9.00;6.00;;;;;;;;5086967;27;45316;-51
2023/09/26 11:28:36;;;;;;;;;5.50;5.50;;;;;;;;5089409;27;45261;-52
2023/09/26 11:31:01;;;;;;;;;4.25;4.25;;;;;;;;5085323;27;47173;-53
2023/09/26 11:33:27;;;;;;;;;4.00;4.00;;;;;;;;5087659;27;45267;-52
2023/09/26 11:35:53;;;;;;;;;3.00;3.00;;;;;;;;5092610;27;45337;-52
2023/09/26 11:38:18;;;;;;;;;5.50;4.00;;;;;;;;5090985;27;45173;-51
2023/09/26 11:40:44;;;;;;;;;7.67;7.67;;;;;;;;5092688;27;46269;-52
2023/09/26 11:43:09;;;;;;;;;5.50;5.50;;;;;;;;5090706;27;45224;-52
2023/09/26 11:45:34;;;;;;;;;4.50;4.50;;;;;;;;5091651;27;45372;-51
2023/09/26 11:48:01;;;;;;;;;7.00;5.75;;;;;;;;5082379;27;45611;-53
2023/09/26 11:50:27;;;;;;;;;3.00;3.00;;;;;;;;5089537;27;46332;-52
2023/09/26 11:52:56;;;;;;;;;6.25;6.25;;;;;;;;5086150;27;45388;-52
2023/09/26 11:55:22;;;;;;;;;4.00;4.00;;;;;;;;5088199;27;45560;-49
2023/09/26 11:57:50;;;;;;;;;3.75;3.75;;;;;;;;5087789;27;45290;-52
2023/09/26 12:00:16;;;;;;;;;5.25;3.75;;;;;;;;5086933;27;46170;-53
2023/09/26 12:02:45;;;;;;;;;4.00;4.00;;;;;;;;5088745;27;45413;-53
2023/09/26 12:05:11;;;;;;;;;8.25;3.50;;;;;;;;5081274;27;45370;-52
2023/09/26 12:07:37;;;;;;;;;4.00;4.00;;;;;;;;5088214;27;45511;-51
2023/09/26 12:10:03;;;;;;;;;3.75;2.00;;;;;;;;5089238;27;45315;-51
2023/09/26 12:12:28;;;;;;;;;3.50;3.50;;;;;;;;5087580;27;45453;-53
2023/09/26 12:15:13;;;;;;;;;2.25;2.25;;;;;;;;5086848;27;45267;-50
2023/09/26 12:17:38;;;;;;;;;5.00;5.00;;;;;;;;5086985;27;46103;-53
2023/09/26 12:20:07;;;;;;;;;4.00;3.75;;;;;;;;5083579;27;46088;-52
2023/09/26 12:22:33;;;;;;;;;2.50;2.00;;;;;;;;5090898;27;45466;-52
2023/09/26 12:24:58;;;;;;;;;3.25;3.25;;;;;;;;5078725;27;45363;-52
2023/09/26 12:27:23;;;;;;;;;6.50;2.50;;;;;;;;5090540;27;45333;-52
2023/09/26 12:29:49;;;;;;;;;1.75;1.75;;;;;;;;5086616;27;45264;-52
2023/09/26 12:32:14;;;;;;;;;2.00;2.00;;;;;;;;5086203;27;45437;-53
2023/09/26 12:34:39;;;;;;;;;3.75;3.75;;;;;;;;5089343;27;45422;-53
2023/09/26 12:37:04;;;;;;;;;5.50;3.50;;;;;;;;5094175;27;45562;-54
2023/09/26 12:39:30;;;;;;;;;2.00;2.00;;;;;;;;5086870;27;45288;-53
2023/09/26 12:41:55;;;;;;;;;3.25;3.00;;;;;;;;5093294;27;45323;-53
2023/09/26 12:44:20;;;;;;;;;3.00;3.00;;;;;;;;5088906;27;45717;-52
2023/09/26 12:46:45;;;;;;;;;2.75;2.75;;;;;;;;5091210;27;45458;-53
2023/09/26 12:49:10;;;;;;;;;3.00;3.00;;;;;;;;5087678;27;46253;-51
2023/09/26 12:51:35;;;;;;;;;2.50;2.50;;;;;;;;5086356;27;45374;-53
2023/09/26 12:54:01;;;;;;;;;2.25;2.25;;;;;;;;5091488;27;45370;-53
2023/09/26 12:56:26;;;;;;;;;4.50;4.50;;;;;;;;5091996;27;45294;-53
2023/09/26 12:58:52;;;;;;;;;3.50;3.50;;;;;;;;5089994;27;45468;-52
2023/09/26 13:01:17;;;;;;;;;5.00;3.00;;;;;;;;5091891;27;45357;-48
2023/09/26 13:03:43;;;;;;;;;3.00;3.00;;;;;;;;5082283;27;45547;-52
2023/09/26 13:06:08;;;;;;;;;3.75;2.75;;;;;;;;5091987;27;45317;-52
2023/09/26 13:08:33;;;;;;;;;2.50;2.50;;;;;;;;5086602;27;46010;-52
2023/09/26 13:10:59;;;;;;;;;6.75;5.00;;;;;;;;5092653;27;45242;-51
2023/09/26 13:13:24;;;;;;;;;6.75;5.50;;;;;;;;5087158;27;45657;-53
2023/09/26 13:15:49;;;;;;;;;3.75;3.75;;;;;;;;5091268;27;45631;-53
2023/09/26 13:18:14;;;;;;;;;3.00;3.00;;;;;;;;5079640;27;45631;-52
2023/09/26 13:20:39;;;;;;;;;3.25;3.25;;;;;;;;5091084;27;46282;-51
2023/09/26 13:23:05;;;;;;;;;2.00;2.00;;;;;;;;5089163;27;45223;-53
2023/09/26 13:25:30;;;;;;;;;2.00;1.75;;;;;;;;5090414;27;45334;-49
2023/09/26 13:27:56;;;;;;;;;2.25;2.25;;;;;;;;5086988;27;45878;-52
2023/09/26 13:30:21;;;;;;;;;3.00;3.00;;;;;;;;5084408;27;45378;-51
2023/09/26 13:32:46;;;;;;;;;4.00;4.00;;;;;;;;5086642;27;45327;-52
2023/09/26 13:35:11;;;;;;;;;5.00;3.00;;;;;;;;5093158;27;45480;-51
2023/09/26 13:37:36;;;;;;;;;3.75;2.50;;;;;;;;5093691;27;45291;-55
2023/09/26 13:40:04;;;;;;;;;1.00;1.00;;;;;;;;5092336;27;45277;-50
2023/09/26 13:42:29;;;;;;;;;3.50;2.00;;;;;;;;5092554;27;45313;-54
2023/09/26 13:44:54;;;;;;;;;1.75;1.75;;;;;;;;5094283;27;45359;-49
2023/09/26 13:47:20;;;;;;;;;2.00;2.00;;;;;;;;5085817;27;46161;-53
2023/09/26 13:49:45;;;;;;;;;3.00;3.00;;;;;;;;5082903;27;45722;-50
2023/09/26 13:52:10;;;;;;;;;4.50;4.25;;;;;;;;5074444;28;45656;-53
2023/09/26 13:54:35;;;;;;;;;3.75;3.75;;;;;;;;5071886;27;45544;-51
2023/09/26 13:57:01;;;;;;;;;2.25;2.25;;;;;;;;5073453;28;46800;-50
2023/09/26 13:59:26;;;;;;;;;3.00;3.00;;;;;;;;5075585;28;45490;-50
2023/09/26 14:01:51;;;;;;;;;3.50;2.50;;;;;;;;5077849;28;45494;-50
2023/09/26 14:04:16;;;;;;;;;3.00;2.25;;;;;;;;5082421;27;45455;-49
2023/09/26 14:06:41;;;;;;;;;5.00;4.00;;;;;;;;5079889;27;45480;-51
2023/09/26 14:09:07;;;;;;;;;3.75;3.75;;;;;;;;5074541;27;45733;-52
2023/09/26 14:11:32;;;;;;;;;2.75;2.75;;;;;;;;5073607;27;45674;-51
2023/09/26 14:13:57;;;;;;;;;2.00;2.00;;;;;;;;5081447;27;45426;-51
2023/09/26 14:16:24;;;;;;;;;2.25;2.00;;;;;;;;5074156;27;45512;-51
2023/09/26 14:18:49;;;;;;;;;2.75;2.75;;;;;;;;5079985;27;45294;-49
2023/09/26 14:21:15;;;;;;;;;3.25;3.25;;;;;;;;5074238;27;45590;-51
2023/09/26 14:23:43;;;;;;;;;3.00;3.00;;;;;;;;5070640;27;45451;-49
2023/09/26 14:26:09;;;;;;;;;3.75;3.75;;;;;;;;5074617;28;45441;-52
2023/09/26 14:28:34;;;;;;;;;2.00;2.00;;;;;;;;5079134;27;45518;-50
2023/09/26 14:30:59;;;;;;;;;2.00;2.00;;;;;;;;5076649;28;45783;-51
2023/09/26 14:33:25;;;;;;;;;3.00;3.00;;;;;;;;5077447;27;45354;-51